createdAt,value
2022-11-22T00:01:19.875Z,8.23
2022-11-22T00:03:48.030Z,7.70
2022-11-22T00:06:16.137Z,8.17
2022-11-22T00:08:44.235Z,8.93
2022-11-22T00:11:13.751Z,8.80
2022-11-22T00:13:41.831Z,9.07
2022-11-22T00:16:09.938Z,9.63
2022-11-22T00:18:38.164Z,9.00
2022-11-22T00:21:08.031Z,8.73
2022-11-22T00:23:36.479Z,8.20
2022-11-22T00:26:04.665Z,8.13
2022-11-22T00:28:34.210Z,8.83
2022-11-22T00:31:02.388Z,9.43
2022-11-22T00:33:30.555Z,8.27
2022-11-22T00:35:58.702Z,8.50
2022-11-22T00:38:26.913Z,7.77
2022-11-22T00:40:55.001Z,9.83
2022-11-22T00:43:23.170Z,8.67
2022-11-22T00:45:52.679Z,8.27
2022-11-22T00:48:20.795Z,8.87
2022-11-22T00:50:50.486Z,9.30
2022-11-22T00:53:18.688Z,8.67
2022-11-22T00:55:47.057Z,8.70
2022-11-22T00:58:15.221Z,9.30
2022-11-22T01:00:43.592Z,10.47
2022-11-22T01:03:14.055Z,8.63
2022-11-22T01:05:42.209Z,9.03
2022-11-22T01:08:10.734Z,8.57
2022-11-22T01:10:39.329Z,8.50
2022-11-22T01:13:07.790Z,8.90
2022-11-22T01:15:37.152Z,8.17
2022-11-22T01:18:05.534Z,8.90
2022-11-22T01:20:35.049Z,9.17
2022-11-22T01:23:03.222Z,8.87
2022-11-22T01:25:31.422Z,9.30
2022-11-22T01:27:59.547Z,9.00
2022-11-22T01:30:27.767Z,8.50
2022-11-22T01:32:55.967Z,7.20
2022-11-22T01:35:24.085Z,9.13
2022-11-22T01:37:53.619Z,8.93
2022-11-22T01:40:22.106Z,10.43
2022-11-22T01:42:52.797Z,8.83
2022-11-22T01:45:48.138Z,8.30
2022-11-22T01:48:27.669Z,10.20
2022-11-22T01:51:01.447Z,9.67
2022-11-22T01:53:34.739Z,9.00
2022-11-22T01:56:05.644Z,9.50
2022-11-22T01:58:37.783Z,9.20
2022-11-22T02:01:06.203Z,8.70
2022-11-22T02:03:44.264Z,9.57
2022-11-22T02:06:12.575Z,9.33
2022-11-22T02:08:48.387Z,9.90
2022-11-22T02:11:18.657Z,8.90
2022-11-22T02:13:46.970Z,9.73
2022-11-22T02:16:15.536Z,8.97
2022-11-22T02:18:43.671Z,9.17
2022-11-22T02:21:12.096Z,8.87
2022-11-22T02:23:51.039Z,9.13
2022-11-22T02:26:20.618Z,7.90
2022-11-22T02:28:49.832Z,7.20
2022-11-22T02:31:39.525Z,8.77
2022-11-22T02:34:08.121Z,6.90
2022-11-22T02:36:39.902Z,6.77
2022-11-22T02:39:10.085Z,8.83
2022-11-22T02:41:41.386Z,7.73
2022-11-22T02:44:11.772Z,9.17
2022-11-22T02:46:49.022Z,9.30
2022-11-22T02:49:19.288Z,8.50
2022-11-22T02:51:48.129Z,8.80
2022-11-22T02:54:19.174Z,9.13
2022-11-22T02:56:48.930Z,8.47
2022-11-22T02:59:17.205Z,9.40
2022-11-22T03:01:47.209Z,8.60
2022-11-22T03:04:24.535Z,9.87
2022-11-22T03:06:54.908Z,8.20
2022-11-22T03:09:23.202Z,8.23
2022-11-22T03:11:53.447Z,8.77
2022-11-22T03:14:22.142Z,8.23
2022-11-22T03:16:50.626Z,9.73
2022-11-22T03:19:18.802Z,8.87
2022-11-22T03:21:47.092Z,10.30
2022-11-22T03:24:15.236Z,8.97
2022-11-22T03:26:46.979Z,9.40
2022-11-22T03:29:17.327Z,9.50
2022-11-22T03:31:48.637Z,9.00
2022-11-22T03:34:17.302Z,9.00
2022-11-22T03:36:45.456Z,9.30
2022-11-22T03:39:13.861Z,9.60
2022-11-22T03:41:42.058Z,9.53
2022-11-22T03:44:10.177Z,9.10
2022-11-22T03:46:39.669Z,8.20
2022-11-22T03:49:07.807Z,8.63
2022-11-22T03:51:35.887Z,10.17
2022-11-22T03:54:03.999Z,10.13
2022-11-22T03:56:32.307Z,9.03
2022-11-22T03:59:00.522Z,9.77
2022-11-22T04:01:28.900Z,9.90
2022-11-22T04:03:58.430Z,10.33
2022-11-22T04:06:26.504Z,9.80
2022-11-22T04:08:54.714Z,9.70
2022-11-22T04:11:22.939Z,9.40
2022-11-22T04:14:08.311Z,9.77
2022-11-22T04:16:37.841Z,9.70
2022-11-22T04:19:07.310Z,9.57
2022-11-22T04:21:34.467Z,10.23
2022-11-22T04:24:21.287Z,10.00
2022-11-22T04:26:50.063Z,9.50
2022-11-22T04:29:20.024Z,10.50
2022-11-22T04:32:06.479Z,10.40
2022-11-22T04:34:36.324Z,10.57
2022-11-22T04:37:06.077Z,9.77
2022-11-22T04:39:34.592Z,10.27
2022-11-22T04:42:19.994Z,10.70
2022-11-22T04:44:48.384Z,9.63
2022-11-22T04:47:39.759Z,11.00
2022-11-22T04:50:24.364Z,9.90
2022-11-22T04:52:54.961Z,9.63
2022-11-22T04:55:23.373Z,10.90
2022-11-22T04:57:56.068Z,11.37
2022-11-22T05:00:28.114Z,11.23
2022-11-22T05:02:56.419Z,11.80
2022-11-22T05:05:26.571Z,10.80
2022-11-22T05:07:54.711Z,10.87
2022-11-22T05:10:26.814Z,10.90
2022-11-22T05:12:55.426Z,10.30
2022-11-22T05:15:23.590Z,9.73
2022-11-22T05:17:51.690Z,11.10
2022-11-22T05:20:19.983Z,11.90
2022-11-22T05:23:07.073Z,11.37
2022-11-22T05:25:35.237Z,11.07
2022-11-22T05:28:03.430Z,11.57
2022-11-22T05:30:31.557Z,11.30
2022-11-22T05:32:59.646Z,12.00
2022-11-22T05:35:27.774Z,11.20
2022-11-22T05:37:58.845Z,11.30
2022-11-22T05:40:27.743Z,11.00
2022-11-22T05:42:55.874Z,11.87
2022-11-22T05:45:24.081Z,9.43
2022-11-22T05:47:52.258Z,10.67
2022-11-22T05:50:20.398Z,12.83
2022-11-22T05:52:55.561Z,11.43
2022-11-22T05:55:25.005Z,11.80
2022-11-22T05:57:53.131Z,10.47
2022-11-22T06:00:21.541Z,12.27
2022-11-22T06:02:49.662Z,10.83
2022-11-22T06:05:17.847Z,11.53
2022-11-22T06:07:46.819Z,10.77
2022-11-22T06:10:15.178Z,11.37
2022-11-22T06:12:44.733Z,10.17
2022-11-22T06:15:13.002Z,10.63
2022-11-22T06:17:41.089Z,11.30
2022-11-22T06:20:10.542Z,11.07
2022-11-22T06:22:38.771Z,11.03
2022-11-22T06:25:07.942Z,10.43
2022-11-22T06:27:36.168Z,11.73
2022-11-22T06:30:06.465Z,10.43
2022-11-22T06:32:35.274Z,11.00
2022-11-22T06:35:03.643Z,12.03
2022-11-22T06:37:32.039Z,12.20
2022-11-22T06:40:00.163Z,10.13
2022-11-22T06:42:28.381Z,10.63
2022-11-22T06:44:56.495Z,11.67
2022-11-22T06:47:26.067Z,10.43
2022-11-22T06:49:54.203Z,11.20
2022-11-22T06:52:25.026Z,9.10
2022-11-22T06:54:53.159Z,10.80
2022-11-22T06:57:22.158Z,10.00
2022-11-22T06:59:50.300Z,10.63
2022-11-22T07:02:18.414Z,10.40
2022-11-22T07:05:17.298Z,13.63
2022-11-22T07:07:36.936Z,10.40
2022-11-22T07:10:05.672Z,10.97
2022-11-22T07:12:33.730Z,10.07
2022-11-22T07:15:01.932Z,10.27
2022-11-22T07:17:30.007Z,9.73
2022-11-22T07:20:01.816Z,10.47
2022-11-22T07:22:29.913Z,9.97
2022-11-22T07:24:58.048Z,11.03
2022-11-22T07:27:26.165Z,11.70
2022-11-22T07:29:54.292Z,10.37
2022-11-22T07:32:22.459Z,10.87
2022-11-22T07:34:50.571Z,10.27
2022-11-22T07:37:20.030Z,11.30
2022-11-22T07:39:48.183Z,11.23
2022-11-22T07:42:16.313Z,11.70
2022-11-22T07:44:45.018Z,11.63
2022-11-22T07:47:15.270Z,11.53
2022-11-22T07:49:46.601Z,11.03
2022-11-22T07:52:15.361Z,11.73
2022-11-22T07:54:44.839Z,11.50
2022-11-22T07:57:13.076Z,11.43
2022-11-22T07:59:41.274Z,10.20
2022-11-22T08:02:12.308Z,11.07
2022-11-22T08:04:40.472Z,11.40
2022-11-22T08:07:09.369Z,12.17
2022-11-22T08:09:37.674Z,10.87
2022-11-22T08:12:07.682Z,10.90
2022-11-22T08:14:36.131Z,11.37
2022-11-22T08:17:04.344Z,12.53
2022-11-22T08:19:33.431Z,10.40
2022-11-22T08:22:01.570Z,11.37
2022-11-22T08:24:29.728Z,10.90
2022-11-22T08:26:57.823Z,12.83
2022-11-22T08:29:29.299Z,11.67
2022-11-22T08:31:57.603Z,9.67
2022-11-22T08:34:25.909Z,11.07
2022-11-22T08:36:54.031Z,12.03
2022-11-22T08:39:23.065Z,12.50
2022-11-22T08:41:51.237Z,11.47
2022-11-22T08:44:19.383Z,13.43
2022-11-22T08:46:48.853Z,12.87
2022-11-22T08:49:17.034Z,12.30
2022-11-22T08:51:46.714Z,13.17
2022-11-22T08:54:16.220Z,12.53
2022-11-22T08:56:44.342Z,11.30
2022-11-22T08:59:12.667Z,11.63
2022-11-22T09:01:40.808Z,11.60
2022-11-22T09:04:10.716Z,11.80
2022-11-22T09:09:37.250Z,12.83
2022-11-22T09:12:07.726Z,12.23
2022-11-22T09:14:36.143Z,13.60
2022-11-22T09:17:05.779Z,13.00
2022-11-22T09:19:35.407Z,13.90
2022-11-22T09:22:03.544Z,12.30
2022-11-22T09:24:33.119Z,13.73
2022-11-22T09:27:01.277Z,12.60
2022-11-22T09:29:29.765Z,13.47
2022-11-22T09:31:58.050Z,13.37
2022-11-22T09:34:26.159Z,13.83
2022-11-22T09:36:57.936Z,12.30
2022-11-22T09:39:26.089Z,12.23
2022-11-22T09:42:28.885Z,12.30
2022-11-22T09:45:23.811Z,13.40
2022-11-22T09:48:02.046Z,11.60
2022-11-22T09:50:40.880Z,12.33
2022-11-22T09:53:15.222Z,22.33
2022-11-22T09:55:46.708Z,19.67
2022-11-22T09:58:25.629Z,14.87
2022-11-22T10:00:55.571Z,13.53
2022-11-22T10:03:28.580Z,14.33
2022-11-22T10:06:01.080Z,13.10
2022-11-22T10:08:40.549Z,14.00
2022-11-22T10:11:16.027Z,13.17
2022-11-22T10:13:50.960Z,11.27
2022-11-22T10:16:24.225Z,13.00
2022-11-22T10:18:57.746Z,13.17
2022-11-22T10:21:27.364Z,13.10
2022-11-22T10:23:56.992Z,14.30
2022-11-22T10:26:28.340Z,13.30
2022-11-22T10:29:06.504Z,14.03
2022-11-22T10:31:40.228Z,13.30
2022-11-22T10:34:17.646Z,14.03
2022-11-22T10:36:49.919Z,13.80
2022-11-22T10:39:34.251Z,13.33
2022-11-22T10:42:27.071Z,14.80
2022-11-22T10:45:05.458Z,14.33
2022-11-22T10:47:46.614Z,13.43
2022-11-22T10:50:21.499Z,14.00
2022-11-22T10:52:59.393Z,13.23
2022-11-22T10:55:43.578Z,13.37
2022-11-22T10:58:22.309Z,13.73
2022-11-22T11:00:53.999Z,13.63
2022-11-22T11:03:27.768Z,13.87
2022-11-22T11:06:21.740Z,13.67
2022-11-22T11:09:36.635Z,12.47
2022-11-22T11:11:46.247Z,14.13
2022-11-22T11:14:25.606Z,14.07
2022-11-22T11:16:54.966Z,15.10
2022-11-22T11:19:25.508Z,13.67
2022-11-22T11:22:00.784Z,14.40
2022-11-22T11:24:31.728Z,13.33
2022-11-22T11:27:01.877Z,12.70
2022-11-22T11:29:46.139Z,15.10
2022-11-22T11:32:16.595Z,14.37
2022-11-22T11:35:02.400Z,14.63
2022-11-22T11:37:37.797Z,13.87
2022-11-22T11:40:07.973Z,12.20
2022-11-22T11:42:37.477Z,13.07
2022-11-22T11:45:29.250Z,13.63
2022-11-22T11:47:57.406Z,12.63
2022-11-22T11:50:27.735Z,13.70
2022-11-22T11:52:58.058Z,13.87
2022-11-22T11:55:31.257Z,13.93
2022-11-22T11:58:02.483Z,13.10
2022-11-22T12:00:40.891Z,13.37
2022-11-22T12:03:13.275Z,13.97
2022-11-22T12:05:41.677Z,14.83
2022-11-22T12:08:30.051Z,13.17
2022-11-22T12:11:03.904Z,13.30
2022-11-22T12:13:57.710Z,13.00
2022-11-22T12:16:30.185Z,13.70
2022-11-22T12:19:05.479Z,14.00
2022-11-22T12:21:46.253Z,12.33
2022-11-22T12:24:43.120Z,12.87
2022-11-22T12:27:12.413Z,12.87
2022-11-22T12:29:44.507Z,14.43
2022-11-22T12:32:18.865Z,12.97
2022-11-22T12:34:54.093Z,12.50
2022-11-22T12:37:27.771Z,13.43
2022-11-22T12:39:59.609Z,13.40
2022-11-22T12:42:33.019Z,13.30
2022-11-22T12:45:07.443Z,12.70
2022-11-22T12:47:40.879Z,12.23
2022-11-22T12:50:16.383Z,12.37
2022-11-22T12:52:48.858Z,13.00
2022-11-22T12:55:21.410Z,13.20
2022-11-22T12:57:55.916Z,12.37
2022-11-22T13:00:28.043Z,13.77
2022-11-22T13:03:03.278Z,13.33
2022-11-22T13:05:35.173Z,14.20
2022-11-22T13:08:15.140Z,13.50
2022-11-22T13:10:46.435Z,13.10
2022-11-22T13:13:22.514Z,12.40
2022-11-22T13:15:55.067Z,12.97
2022-11-22T13:18:26.767Z,13.10
2022-11-22T13:21:04.129Z,12.63
2022-11-22T13:23:49.990Z,13.23
2022-11-22T13:26:25.013Z,13.80
2022-11-22T13:28:53.493Z,12.27
2022-11-22T13:31:23.059Z,12.87
2022-11-22T13:33:56.853Z,13.00
2022-11-22T13:36:46.267Z,12.47
2022-11-22T13:39:20.064Z,13.00
2022-11-22T13:42:04.173Z,13.07
2022-11-22T13:44:39.358Z,13.37
2022-11-22T13:47:40.177Z,13.03
2022-11-22T13:50:55.130Z,12.63
2022-11-22T13:53:33.548Z,13.03
2022-11-22T13:56:41.459Z,12.13
2022-11-22T13:59:15.964Z,13.17
2022-11-22T14:01:59.921Z,12.40
2022-11-22T14:04:41.653Z,13.67
2022-11-22T14:07:35.197Z,12.27
2022-11-22T14:10:24.827Z,12.93
2022-11-22T14:13:18.436Z,13.07
2022-11-22T14:16:14.883Z,12.90
2022-11-22T14:18:54.614Z,12.93
2022-11-22T14:21:53.957Z,12.20
2022-11-22T14:24:36.101Z,15.00
2022-11-22T14:27:18.632Z,13.37
2022-11-22T14:30:05.742Z,12.27
2022-11-22T14:32:50.615Z,13.27
2022-11-22T14:35:30.068Z,13.67
2022-11-22T14:38:03.983Z,13.10
2022-11-22T14:40:38.714Z,13.27
2022-11-22T14:43:23.386Z,13.67
2022-11-22T14:45:54.163Z,15.10
2022-11-22T14:48:25.391Z,13.40
2022-11-22T14:51:00.681Z,13.43
2022-11-22T14:53:34.546Z,14.33
2022-11-22T14:56:09.045Z,12.80
2022-11-22T14:58:43.089Z,13.97
2022-11-22T15:01:45.212Z,14.67
2022-11-22T15:09:12.526Z,12.47
2022-11-22T15:09:19.926Z,12.70
2022-11-22T15:11:18.104Z,14.07
2022-11-22T15:14:11.567Z,13.37
2022-11-22T15:59:42.940Z,13.30
2022-11-22T16:02:15.914Z,13.90
2022-11-22T16:06:10.013Z,13.73
2022-11-22T16:07:43.279Z,15.37
2022-11-22T16:10:20.594Z,14.97
2022-11-22T16:12:49.116Z,15.40
2022-11-22T16:15:27.690Z,15.47
2022-11-22T16:18:06.596Z,19.43
2022-11-22T16:20:37.300Z,15.93
2022-11-22T16:23:19.753Z,14.17
2022-11-22T16:25:50.678Z,14.23
2022-11-22T16:28:28.810Z,14.97
2022-11-22T16:30:58.732Z,15.40
2022-11-22T16:33:27.094Z,14.00
2022-11-22T16:35:58.120Z,13.53
2022-11-22T16:38:27.208Z,13.77
2022-11-22T16:40:57.842Z,14.63
2022-11-22T16:43:27.788Z,14.40
2022-11-22T16:45:56.120Z,13.60
2022-11-22T16:48:33.634Z,14.17
2022-11-22T16:51:06.214Z,13.10
2022-11-22T16:53:44.043Z,14.20
2022-11-22T16:56:19.333Z,14.57
2022-11-22T16:58:47.885Z,13.60
2022-11-22T17:01:17.754Z,14.47
2022-11-22T17:03:48.075Z,14.37
2022-11-22T17:06:22.156Z,13.33
2022-11-22T17:08:52.901Z,14.33
2022-11-22T17:11:22.625Z,13.87
2022-11-22T17:13:51.273Z,14.13
2022-11-22T17:16:19.576Z,13.97
2022-11-22T17:18:48.550Z,15.07
2022-11-22T17:21:26.056Z,14.00
2022-11-22T17:23:55.932Z,13.77
2022-11-22T17:26:24.670Z,14.03
2022-11-22T17:28:53.171Z,16.00
2022-11-22T17:31:23.217Z,15.53
2022-11-22T17:33:52.270Z,13.47
2022-11-22T17:36:27.700Z,13.77
2022-11-22T17:38:55.899Z,14.27
2022-11-22T17:41:24.670Z,13.87
2022-11-22T17:43:55.703Z,15.53
2022-11-22T17:46:23.898Z,15.10
2022-11-22T17:48:53.807Z,13.53
2022-11-22T17:51:23.661Z,15.13
2022-11-22T17:53:51.889Z,13.37
2022-11-22T17:56:20.254Z,14.03
2022-11-22T17:58:48.710Z,14.30
2022-11-22T18:01:18.504Z,13.90
2022-11-22T18:03:48.057Z,14.27
2022-11-22T18:06:17.766Z,13.63
2022-11-22T18:08:47.640Z,13.87
2022-11-22T18:11:16.296Z,14.03
2022-11-22T18:13:44.919Z,14.50
2022-11-22T18:16:15.665Z,13.00
2022-11-22T18:18:59.729Z,15.37
2022-11-22T18:21:29.204Z,15.10
2022-11-22T18:24:00.110Z,15.00
2022-11-22T18:26:43.970Z,15.37
2022-11-22T18:32:02.625Z,14.97
2022-11-22T18:34:31.347Z,14.73
2022-11-22T18:37:02.669Z,22.43
2022-11-22T18:39:36.042Z,14.80
2022-11-22T18:42:05.057Z,14.33
2022-11-22T18:44:33.404Z,14.27
2022-11-22T18:47:01.682Z,14.13
2022-11-22T18:49:30.648Z,13.57
2022-11-22T18:51:59.161Z,13.67
2022-11-22T18:54:27.350Z,12.93
2022-11-22T18:56:56.822Z,14.77
2022-11-22T18:59:25.048Z,14.27
2022-11-22T19:01:53.223Z,14.70
2022-11-22T19:04:21.544Z,14.50
2022-11-22T19:06:49.710Z,15.67
2022-11-22T19:09:17.919Z,13.90
2022-11-22T19:11:46.077Z,15.43
2022-11-22T19:14:15.664Z,13.63
2022-11-22T19:16:43.792Z,15.37
2022-11-22T19:19:12.792Z,14.73
2022-11-22T19:21:41.002Z,14.33
2022-11-22T19:24:09.472Z,14.63
2022-11-22T19:26:37.558Z,14.27
2022-11-22T19:29:05.674Z,16.00
2022-11-22T19:31:36.575Z,14.47
2022-11-22T19:34:04.739Z,14.87
2022-11-22T19:36:34.282Z,13.03
2022-11-22T19:39:03.666Z,16.63
2022-11-22T19:41:32.154Z,13.77
2022-11-22T19:44:00.843Z,15.37
2022-11-22T19:46:29.222Z,14.63
2022-11-22T19:49:01.012Z,14.53
2022-11-22T19:51:31.074Z,14.37
2022-11-22T19:54:01.950Z,13.83
2022-11-22T19:56:31.558Z,14.40
2022-11-22T19:59:01.399Z,15.17
2022-11-22T20:01:31.996Z,16.00
2022-11-22T20:04:03.322Z,15.03
2022-11-22T20:06:32.857Z,14.10
2022-11-22T20:09:02.037Z,13.67
2022-11-22T20:11:30.307Z,14.50
2022-11-22T20:13:58.508Z,14.60
2022-11-22T20:16:28.646Z,13.77
2022-11-22T20:18:57.870Z,14.70
2022-11-22T20:21:28.916Z,14.63
2022-11-22T20:23:57.124Z,14.77
2022-11-22T20:26:25.878Z,13.73
2022-11-22T20:28:58.858Z,14.07
2022-11-22T20:31:28.911Z,15.00
2022-11-22T20:33:57.150Z,14.83
2022-11-22T20:36:28.357Z,15.43
2022-11-22T20:38:57.991Z,14.17
2022-11-22T20:41:27.617Z,13.97
2022-11-22T20:43:55.785Z,13.53
2022-11-22T20:46:25.740Z,14.47
2022-11-22T20:48:54.544Z,14.63
2022-11-22T20:51:24.225Z,14.80
2022-11-22T20:53:54.323Z,16.03
2022-11-22T20:56:22.509Z,14.60
2022-11-22T20:58:50.861Z,14.13
2022-11-22T21:01:21.297Z,16.03
2022-11-22T21:03:50.191Z,15.57
2022-11-22T21:06:20.616Z,14.33
2022-11-22T21:08:48.987Z,14.23
2022-11-22T21:11:20.363Z,14.43
2022-11-22T21:13:48.811Z,14.97
2022-11-22T21:16:25.480Z,12.93
2022-11-22T21:18:54.578Z,14.73
2022-11-22T21:21:26.036Z,14.73
2022-11-22T21:23:55.728Z,12.90
2022-11-22T21:26:26.479Z,15.07
2022-11-22T21:28:55.216Z,14.07
2022-11-22T21:31:24.192Z,14.40
2022-11-22T21:33:52.914Z,13.43
2022-11-22T21:36:22.062Z,14.13
2022-11-22T21:38:50.498Z,14.70
2022-11-22T21:41:39.200Z,14.67
2022-11-22T21:44:09.561Z,14.43
2022-11-22T21:46:37.712Z,16.27
2022-11-22T21:49:05.890Z,16.70
2022-11-22T21:51:34.095Z,15.30
2022-11-22T21:54:03.192Z,15.43
2022-11-22T21:56:31.808Z,14.97
2022-11-22T21:59:00.350Z,14.97
2022-11-22T22:01:30.087Z,14.93
2022-11-22T22:03:58.380Z,14.47
2022-11-22T22:06:26.624Z,15.07
2022-11-22T22:08:55.153Z,14.67
2022-11-22T22:11:23.411Z,16.07
2022-11-22T22:13:53.426Z,17.57
2022-11-22T22:16:23.701Z,17.07
2022-11-22T22:18:53.970Z,15.67
2022-11-22T22:21:22.241Z,17.10
2022-11-22T22:23:50.421Z,16.30
2022-11-22T22:26:18.916Z,15.33
2022-11-22T22:28:47.277Z,14.47
2022-11-22T22:31:21.220Z,14.03
2022-11-22T22:33:50.595Z,15.57
2022-11-22T22:36:20.212Z,14.90
2022-11-22T22:38:48.420Z,15.37
2022-11-22T22:41:16.923Z,15.83
2022-11-22T22:43:46.851Z,15.33
2022-11-22T22:46:16.882Z,15.83
2022-11-22T22:48:45.606Z,15.63
2022-11-22T22:51:15.431Z,16.03
2022-11-22T22:53:45.466Z,16.30
2022-11-22T22:56:14.866Z,14.50
2022-11-22T22:58:43.178Z,15.50
2022-11-22T23:01:14.662Z,15.80
2022-11-22T23:03:43.035Z,15.23
2022-11-22T23:06:12.611Z,14.97
2022-11-22T23:08:41.038Z,14.93
2022-11-22T23:11:11.855Z,14.77
2022-11-22T23:13:42.275Z,15.53
2022-11-22T23:16:12.355Z,14.80
2022-11-22T23:18:43.285Z,16.23
2022-11-22T23:21:13.317Z,16.47
2022-11-22T23:23:41.428Z,17.50
2022-11-22T23:26:13.067Z,17.07
2022-11-22T23:28:41.241Z,16.73
2022-11-22T23:31:10.731Z,16.27
2022-11-22T23:33:39.033Z,15.37
2022-11-22T23:38:57.953Z,14.80
2022-11-22T23:41:27.494Z,15.10
2022-11-22T23:43:56.935Z,15.73
2022-11-22T23:46:27.912Z,13.80
2022-11-22T23:48:57.894Z,16.20
2022-11-22T23:51:26.980Z,13.90
2022-11-22T23:53:56.137Z,15.27
2022-11-22T23:56:24.590Z,15.07
2022-11-22T23:58:54.550Z,14.43
